Washington, DC (20391)

12:07 PM EDT on April 27, 2015 (GMT -0400)
Capitol Hill, Washington, DC USA | | Change Station
CLOSE
Current Station
Personal Weather Station
Location: Washington, DC
Elevation: 92 ft
Nearby Weather Stations

Elev 92 ft 38.89 °N, 76.99 °W | Updated 2 minutes ago

Mostly Cloudy
Mostly Cloudy
60.9 °F
Feels Like 60.9 °F
N
0.0
Wind Variable Wind from NNW

Today
High -- | Low -- °F
--% Chance of Precip.
Yesterday
High -- | Low -- °F
Precip. -- in
6:15 AM 7:56 PM
Waxing Gibbous, 66% visible
Pressure 29.80 in
Visibility 10.0 miles
Clouds Scattered Clouds 5500 ft
Mostly Cloudy 8500 ft
Dew Point 42 °F
Humidity 50%
Rainfall 0.00 in
Snow Depth Not available.
UV 5 out of 12
Pollen 7.10 out of 12
Air Quality Not available.
Flu Activity Local Activity
METAR KDCA 271552Z 35009G18KT 10SM SCT055 BKN085 16/02 A2980

More Conditions Fewer Conditions

Pressure 29.80 in
Visibility 10.0 miles
Clouds Scattered Clouds 5500 ft
Mostly Cloudy 8500 ft
Dew Point 42 °F
Humidity 50%
Rainfall 0.00 in
Snow Depth Not available.
UV 5 out of 12
Pollen 7.10 out of 12
Air Quality Not available.
Flu Activity Local Activity
METAR KDCA 271552Z 35009G18KT 10SM SCT055 BKN085 16/02 A2980

More Conditions Fewer Conditions

10-Day Weather Forecast

Almanac

Astronomy

Apr. 27, 2015 Rise Set
Actual Time
Civil Twilight
Nautical Twilight
Astronomical Twilight
Moon
Length of Visible Light
Length of Day
Tomorrow will be .
, % of the Moon is Illuminated

Today's Extremes

State Highs State Lows

Community

WunderPhotos

Upload Photos

1,817,333 photos uploaded!

WunderBlogs® & News

Nearby

Air Quality

  Air Quality AQ Index Pollutant
Not available.

Snow Depth

Station Depth Elevation

Earthquake Activity

City Distance Mag. Time & Date
Minimum magnitude displayed is 2.5.

Coastal Water Temperatures

Place Temperature

Stations

Nearby Weather Stations

Station Location Temp. Windchill Dew Point Humidity Wind Precip. Elev Updated Type